Time;durP1;ratioP1;P1;durP2;ratioP2;P2;SDS_P1;SDS_P2;PMS_P1;PMS_P2;Temp;Humidity;BMP_temperature;BMP_pressure;BME280_temperature;BME280_humidity;BME280_pressure;Samples;Min_cycle;Max_cycle;Signal;HPM_P1;HPM_P2
2022/01/27 00:02:12;;;;;;;36.70;22.00;;;4.80;99.90;;;;;;5087967;28;21010;-41
2022/01/27 00:04:49;;;;;;;36.40;22.00;;;4.60;99.90;;;;;;5088697;28;20801;-40
2022/01/27 00:07:14;;;;;;;42.13;21.70;;;4.80;99.90;;;;;;5076410;28;20430;-40
2022/01/27 00:12:09;;;;;;;40.53;22.90;;;4.90;99.90;;;;;;5089292;28;20299;-40
2022/01/27 00:14:44;;;;;;;39.10;22.70;;;4.70;99.90;;;;;;5090004;28;20913;-40
2022/01/27 00:17:13;;;;;;;43.33;21.70;;;4.80;99.90;;;;;;5089989;28;20538;-40
2022/01/27 00:19:39;;;;;;;37.17;21.10;;;4.80;99.90;;;;;;5089339;28;20440;-41
2022/01/27 00:22:05;;;;;;;38.37;23.53;;;4.80;99.90;;;;;;5079836;28;20474;-42
2022/01/27 00:24:31;;;;;;;40.17;21.60;;;4.50;99.90;;;;;;5089682;28;20418;-40
2022/01/27 00:26:58;;;;;;;40.43;21.67;;;4.50;99.90;;;;;;5089992;28;20181;-40
2022/01/27 00:29:24;;;;;;;38.10;21.10;;;4.20;99.90;;;;;;5089839;28;20436;-41
2022/01/27 00:31:50;;;;;;;41.33;22.50;;;4.20;99.90;;;;;;5089014;28;21177;-40
2022/01/27 00:34:16;;;;;;;40.37;20.20;;;4.30;99.90;;;;;;5089937;28;20410;-40
2022/01/27 00:36:42;;;;;;;42.90;22.43;;;4.70;99.90;;;;;;5079192;28;20457;-40
2022/01/27 00:39:08;;;;;;;39.90;20.63;;;4.50;99.90;;;;;;5089697;28;20242;-40
2022/01/27 00:41:33;;;;;;;36.97;19.70;;;4.20;99.90;;;;;;5089150;28;20247;-40
2022/01/27 00:44:00;;;;;;;39.47;19.27;;;4.20;99.90;;;;;;5089717;28;20607;-40
2022/01/27 00:46:26;;;;;;;39.23;19.70;;;4.40;99.90;;;;;;5089465;28;20189;-40
2022/01/27 00:48:51;;;;;;;39.70;21.07;;;4.50;99.90;;;;;;5087676;28;20484;-40
2022/01/27 00:51:21;;;;;;;38.63;19.63;;;4.30;99.90;;;;;;5082789;28;20221;-41
2022/01/27 00:59:19;;;;;;;36.97;20.20;;;4.30;99.90;;;;;;5089401;28;20458;-41
2022/01/27 01:01:53;;;;;;;36.67;20.97;;;4.30;99.90;;;;;;5078839;28;20219;-41
2022/01/27 01:04:26;;;;;;;43.97;22.17;;;4.40;99.90;;;;;;5089362;28;20419;-41
2022/01/27 01:06:52;;;;;;;41.00;22.23;;;4.30;99.90;;;;;;5075807;28;20468;-40
2022/01/27 01:19:57;;;;;;;36.43;20.40;;;4.30;99.90;;;;;;5087243;28;20216;-40
2022/01/27 01:33:08;;;;;;;38.00;21.13;;;4.00;99.90;;;;;;5088642;28;20388;-43
2022/01/27 01:36:01;;;;;;;38.23;20.87;;;4.20;99.90;;;;;;5087171;28;20426;-40
2022/01/27 01:38:25;;;;;;;38.23;21.40;;;4.30;99.90;;;;;;5079330;28;20399;-40
2022/01/27 01:40:53;;;;;;;38.50;21.20;;;4.10;99.90;;;;;;5087752;28;20458;-41
2022/01/27 01:43:20;;;;;;;37.20;21.20;;;4.00;99.90;;;;;;5088356;28;20583;-40
2022/01/27 01:45:46;;;;;;;36.97;19.80;;;4.10;99.90;;;;;;5088467;28;20434;-41
2022/01/27 01:48:14;;;;;;;35.93;19.77;;;3.90;99.90;;;;;;5088225;28;20851;-41
2022/01/27 01:50:39;;;;;;;43.97;22.43;;;4.20;99.90;;;;;;5084613;28;20462;-40
2022/01/27 01:53:05;;;;;;;38.20;20.47;;;4.10;99.90;;;;;;5078636;28;20450;-41
2022/01/27 01:55:32;;;;;;;36.63;20.47;;;4.00;99.90;;;;;;5088304;28;20184;-41
2022/01/27 01:57:59;;;;;;;35.17;19.93;;;3.90;99.90;;;;;;5087281;28;20188;-41
2022/01/27 02:00:26;;;;;;;38.33;19.80;;;4.00;99.90;;;;;;5087316;28;20431;-40
2022/01/27 02:02:52;;;;;;;36.13;19.43;;;4.10;99.90;;;;;;5088047;28;20454;-40
2022/01/27 02:05:26;;;;;;;42.67;22.07;;;4.10;99.90;;;;;;5088292;28;20431;-40
2022/01/27 02:19:18;;;;;;;35.30;19.33;;;4.10;99.90;;;;;;5087813;28;20776;-40
2022/01/27 02:21:58;;;;;;;38.20;19.23;;;4.10;99.90;;;;;;5080502;28;20518;-40
2022/01/27 02:24:28;;;;;;;36.70;19.70;;;4.00;99.90;;;;;;5084677;28;20961;-40
2022/01/27 02:26:54;;;;;;;38.83;20.00;;;4.00;99.90;;;;;;5087718;28;20463;-40
2022/01/27 02:29:22;;;;;;;40.37;20.40;;;4.00;99.90;;;;;;5087664;28;20418;-40
2022/01/27 02:31:51;;;;;;;40.00;19.67;;;3.90;99.90;;;;;;5086824;28;21008;-40
2022/01/27 02:34:17;;;;;;;39.40;19.33;;;3.80;99.90;;;;;;5087573;28;20491;-38
2022/01/27 02:36:43;;;;;;;37.10;20.17;;;3.60;99.90;;;;;;5080103;28;20427;-41
2022/01/27 02:39:10;;;;;;;39.60;19.53;;;3.60;99.90;;;;;;5082625;28;20602;-40
2022/01/27 02:42:00;;;;;;;33.20;18.90;;;3.70;99.90;;;;;;5086735;28;20458;-40
2022/01/27 02:44:29;;;;;;;35.80;19.80;;;4.10;99.90;;;;;;5087384;28;20423;-40
2022/01/27 02:46:56;;;;;;;38.13;18.73;;;4.00;99.90;;;;;;5087374;28;20422;-40
2022/01/27 02:49:21;;;;;;;33.57;18.03;;;4.10;99.90;;;;;;5087390;28;20400;-40
2022/01/27 02:51:47;;;;;;;34.50;18.03;;;4.00;99.90;;;;;;5079464;28;20579;-41
2022/01/27 02:54:13;;;;;;;36.77;19.87;;;4.00;99.90;;;;;;5083223;28;20192;-40
2022/01/27 02:56:44;;;;;;;34.73;17.20;;;3.90;99.90;;;;;;5086997;28;20206;-40
2022/01/27 02:59:10;;;;;;;32.17;18.47;;;3.80;99.90;;;;;;5087374;28;20419;-42
2022/01/27 03:01:36;;;;;;;38.43;19.70;;;3.80;99.90;;;;;;5086173;28;20454;-40
2022/01/27 03:04:02;;;;;;;37.60;18.93;;;4.10;99.90;;;;;;5087450;28;20423;-41
2022/01/27 03:06:28;;;;;;;34.80;19.43;;;4.10;99.90;;;;;;5083915;28;20536;-42
2022/01/27 03:08:53;;;;;;;33.13;18.67;;;3.80;99.90;;;;;;5082699;28;20437;-40
2022/01/27 03:11:53;;;;;;;31.60;18.13;;;3.90;99.90;;;;;;5086329;28;20702;-40
2022/01/27 03:14:21;;;;;;;36.60;19.00;;;4.10;99.90;;;;;;5066092;28;20203;-40
2022/01/27 03:16:48;;;;;;;33.73;18.57;;;4.10;99.90;;;;;;5087086;28;20644;-40
2022/01/27 03:19:15;;;;;;;33.70;18.63;;;3.90;99.90;;;;;;5087541;28;20915;-41
2022/01/27 03:21:40;;;;;;;39.37;19.70;;;4.20;99.90;;;;;;5080881;28;20808;-41
2022/01/27 03:24:07;;;;;;;36.97;18.80;;;3.90;99.90;;;;;;5085655;28;20433;-40
2022/01/27 03:26:33;;;;;;;38.27;18.47;;;4.00;99.90;;;;;;5087005;28;20434;-40
2022/01/27 03:28:59;;;;;;;34.40;19.80;;;3.80;99.90;;;;;;5086576;28;20869;-40
2022/01/27 03:31:26;;;;;;;37.53;18.47;;;4.00;99.90;;;;;;5086447;28;20582;-40
2022/01/27 03:33:52;;;;;;;36.50;19.50;;;4.00;99.90;;;;;;5087502;28;20871;-41
2022/01/27 03:36:17;;;;;;;35.57;20.27;;;3.80;99.90;;;;;;5089838;28;20397;-40
2022/01/27 03:38:43;;;;;;;36.47;19.10;;;4.00;99.90;;;;;;5082447;28;20422;-40
2022/01/27 03:41:10;;;;;;;37.10;20.23;;;4.00;99.90;;;;;;5090128;28;20191;-40
2022/01/27 03:43:38;;;;;;;31.43;17.27;;;4.10;99.90;;;;;;5090413;28;20180;-40
2022/01/27 03:46:05;;;;;;;30.87;17.33;;;4.00;99.90;;;;;;5090745;28;20448;-40
2022/01/27 03:48:31;;;;;;;34.73;18.87;;;4.10;99.90;;;;;;5090824;28;20481;-41
2022/01/27 03:50:56;;;;;;;36.37;18.90;;;4.30;99.90;;;;;;5089772;28;20464;-41
2022/01/27 03:53:22;;;;;;;33.77;18.67;;;4.30;99.90;;;;;;5080866;28;20438;-41
2022/01/27 03:55:49;;;;;;;36.70;19.40;;;3.90;99.90;;;;;;5090210;28;20441;-40
2022/01/27 03:58:15;;;;;;;35.83;19.80;;;4.30;99.90;;;;;;5090099;28;20345;-40
2022/01/27 04:00:41;;;;;;;40.87;19.10;;;3.80;99.90;;;;;;5089878;28;20711;-42
2022/01/27 04:03:09;;;;;;;33.40;18.50;;;4.10;99.90;;;;;;5090343;28;20242;-40
2022/01/27 04:05:39;;;;;;;36.90;17.70;;;4.00;99.90;;;;;;5090322;28;20450;-41
2022/01/27 04:08:07;;;;;;;36.67;19.13;;;4.10;99.90;;;;;;5079889;28;20800;-42
2022/01/27 04:10:34;;;;;;;34.83;18.23;;;4.10;99.90;;;;;;5087791;28;20816;-41
2022/01/27 04:13:01;;;;;;;33.70;18.73;;;3.80;99.90;;;;;;5087296;28;20422;-41
2022/01/27 04:15:27;;;;;;;31.43;18.07;;;4.00;99.90;;;;;;5090073;28;20759;-38
2022/01/27 04:17:53;;;;;;;36.07;19.80;;;4.10;99.90;;;;;;5088983;28;20437;-40
2022/01/27 04:20:19;;;;;;;34.73;18.57;;;4.30;99.90;;;;;;5089109;28;20185;-41
2022/01/27 04:22:45;;;;;;;36.50;18.30;;;4.10;99.90;;;;;;5082393;28;20854;-41
2022/01/27 04:25:12;;;;;;;36.33;19.97;;;4.20;99.90;;;;;;5085289;28;20522;-40
2022/01/27 04:27:41;;;;;;;36.20;19.07;;;4.00;99.90;;;;;;5089857;28;20430;-40
2022/01/27 04:30:13;;;;;;;35.20;20.47;;;4.00;99.90;;;;;;5089128;28;20459;-40
2022/01/27 04:32:45;;;;;;;38.20;19.90;;;4.00;99.90;;;;;;5090191;28;20718;-41
2022/01/27 04:35:15;;;;;;;37.00;20.17;;;4.20;99.90;;;;;;5089642;28;20483;-41
2022/01/27 04:37:52;;;;;;;32.97;18.93;;;4.20;99.90;;;;;;5083156;28;20954;-42
2022/01/27 04:40:20;;;;;;;36.10;19.50;;;4.30;99.90;;;;;;5084429;28;20798;-38
2022/01/27 04:45:21;;;;;;;35.47;19.10;;;4.20;99.90;;;;;;5089222;28;20425;-40
2022/01/27 04:47:51;;;;;;;35.17;18.40;;;4.20;99.90;;;;;;5089445;28;20422;-42
2022/01/27 04:50:17;;;;;;;34.27;19.43;;;4.20;99.90;;;;;;5088802;28;20811;-41
2022/01/27 04:52:46;;;;;;;35.40;17.10;;;4.30;99.90;;;;;;5083494;28;20446;-41
2022/01/27 04:55:14;;;;;;;31.87;17.37;;;4.40;99.90;;;;;;5085245;28;20212;-42
2022/01/27 04:57:43;;;;;;;30.90;19.10;;;4.50;99.90;;;;;;5088988;28;20442;-41
2022/01/27 05:00:12;;;;;;;32.13;19.17;;;4.40;99.90;;;;;;5088704;28;20436;-40
2022/01/27 05:02:54;;;;;;;31.80;16.93;;;4.60;99.90;;;;;;5089320;28;20458;-41
2022/01/27 05:05:21;;;;;;;32.50;16.97;;;4.50;99.90;;;;;;5089204;28;20956;-40
2022/01/27 05:07:54;;;;;;;35.57;17.87;;;4.50;99.90;;;;;;5086485;28;20907;-43
2022/01/27 05:10:23;;;;;;;33.27;17.93;;;4.30;99.90;;;;;;5085506;28;20917;-43
2022/01/27 05:12:52;;;;;;;31.33;18.80;;;4.30;99.90;;;;;;5087267;28;20950;-41
2022/01/27 05:15:18;;;;;;;29.33;15.67;;;4.40;99.90;;;;;;5088761;28;20427;-41
2022/01/27 05:17:44;;;;;;;31.47;18.37;;;4.40;99.90;;;;;;5088933;28;20428;-41
2022/01/27 05:20:10;;;;;;;27.87;15.53;;;4.40;99.90;;;;;;5088596;28;20787;-41
2022/01/27 05:22:36;;;;;;;26.77;15.93;;;4.40;99.90;;;;;;5082984;28;20209;-41
2022/01/27 05:25:02;;;;;;;31.27;17.43;;;4.50;99.90;;;;;;5083099;28;20436;-40
2022/01/27 05:27:28;;;;;;;32.93;18.07;;;4.60;99.90;;;;;;5087537;28;20583;-43
2022/01/27 05:29:54;;;;;;;29.10;16.27;;;4.80;99.90;;;;;;5088063;28;20427;-41
2022/01/27 05:32:20;;;;;;;29.60;17.13;;;4.60;99.90;;;;;;5088801;28;20181;-43
2022/01/27 05:34:46;;;;;;;32.87;16.57;;;4.60;99.90;;;;;;5088619;28;20437;-41
2022/01/27 05:37:12;;;;;;;31.03;17.47;;;4.70;99.90;;;;;;5086402;28;20188;-41
2022/01/27 05:39:37;;;;;;;34.43;16.47;;;4.70;99.90;;;;;;5081531;28;20804;-42
2022/01/27 05:42:03;;;;;;;26.93;16.27;;;4.50;99.90;;;;;;5084614;28;20227;-40
2022/01/27 05:44:31;;;;;;;29.67;15.50;;;4.60;99.90;;;;;;5081130;28;20189;-45
2022/01/27 05:46:57;;;;;;;27.90;16.07;;;4.60;99.90;;;;;;5087384;28;20912;-41
2022/01/27 05:49:23;;;;;;;28.17;16.67;;;4.60;99.90;;;;;;5087842;28;20422;-40
2022/01/27 05:51:49;;;;;;;27.77;16.40;;;4.60;99.90;;;;;;5087468;28;20438;-42
2022/01/27 05:54:14;;;;;;;31.43;17.80;;;4.60;99.90;;;;;;5077009;28;20529;-46
2022/01/27 05:56:40;;;;;;;31.17;16.53;;;4.70;99.90;;;;;;5085708;28;20590;-41
2022/01/27 05:59:06;;;;;;;31.10;17.00;;;4.60;99.90;;;;;;5086732;28;20191;-40
2022/01/27 06:01:32;;;;;;;29.00;16.30;;;4.60;99.90;;;;;;5087547;28;20208;-41
2022/01/27 06:03:57;;;;;;;27.20;15.90;;;4.70;99.90;;;;;;5088064;28;20271;-41
2022/01/27 06:06:23;;;;;;;30.07;15.90;;;4.60;99.90;;;;;;5088331;28;20210;-40
2022/01/27 06:08:49;;;;;;;32.20;17.10;;;4.70;99.90;;;;;;5076963;28;20192;-40
2022/01/27 06:11:14;;;;;;;32.37;16.80;;;4.60;99.90;;;;;;5085826;28;20177;-40
2022/01/27 06:13:40;;;;;;;33.60;16.13;;;4.60;99.90;;;;;;5087593;28;20190;-42
2022/01/27 06:16:10;;;;;;;33.70;17.40;;;4.70;99.90;;;;;;5087713;28;20250;-40
2022/01/27 06:18:37;;;;;;;27.73;15.47;;;4.70;99.90;;;;;;5087929;28;20323;-40
2022/01/27 06:21:05;;;;;;;29.33;15.60;;;4.60;99.90;;;;;;5087086;28;20423;-41
2022/01/27 06:23:31;;;;;;;28.93;16.67;;;4.70;99.90;;;;;;5077862;28;20998;-40
2022/01/27 06:26:03;;;;;;;31.00;16.10;;;4.60;99.90;;;;;;5081339;28;21180;-40
2022/01/27 06:28:30;;;;;;;29.67;16.23;;;4.60;99.90;;;;;;5087712;28;20506;-40
2022/01/27 06:30:56;;;;;;;32.10;16.10;;;4.70;99.90;;;;;;5086953;28;20877;-40
2022/01/27 06:33:22;;;;;;;28.30;16.10;;;4.60;99.90;;;;;;5087577;28;20483;-43
2022/01/27 06:35:48;;;;;;;30.50;16.87;;;4.60;99.90;;;;;;5087069;28;20944;-40
2022/01/27 06:38:14;;;;;;;33.40;17.07;;;4.60;99.90;;;;;;5081786;28;20829;-42
2022/01/27 06:40:39;;;;;;;34.37;16.73;;;4.60;99.90;;;;;;5082049;28;20486;-40
2022/01/27 06:43:05;;;;;;;31.27;16.67;;;4.60;99.90;;;;;;5087408;28;20220;-41
2022/01/27 06:45:31;;;;;;;26.90;16.90;;;4.70;99.90;;;;;;5086135;28;20662;-41
2022/01/27 06:47:57;;;;;;;30.73;16.40;;;4.90;99.90;;;;;;5087401;28;20422;-40
2022/01/27 06:50:22;;;;;;;30.93;16.10;;;4.80;99.90;;;;;;5082922;28;20207;-40
2022/01/27 06:52:48;;;;;;;28.93;15.70;;;4.70;99.90;;;;;;5084590;28;20181;-43
2022/01/27 06:55:17;;;;;;;30.83;15.40;;;4.80;99.90;;;;;;5076630;28;20642;-43
2022/01/27 06:57:44;;;;;;;29.97;15.27;;;4.60;99.90;;;;;;5080316;28;21161;-40
2022/01/27 07:00:11;;;;;;;31.23;16.90;;;4.80;99.90;;;;;;5083664;28;20821;-42
2022/01/27 07:02:37;;;;;;;28.73;15.90;;;4.70;99.90;;;;;;5087005;28;20551;-40
2022/01/27 07:05:03;;;;;;;29.10;15.90;;;4.90;99.90;;;;;;5087520;28;20426;-41
2022/01/27 07:07:29;;;;;;;29.97;16.20;;;5.10;99.90;;;;;;5085794;28;20704;-41
2022/01/27 07:09:54;;;;;;;31.70;16.20;;;5.00;99.90;;;;;;5078028;28;20434;-41
2022/01/27 07:12:21;;;;;;;32.10;15.73;;;4.90;99.90;;;;;;5087718;28;20891;-44
2022/01/27 07:14:46;;;;;;;25.33;15.20;;;4.90;99.90;;;;;;5090618;28;20194;-42
2022/01/27 07:17:14;;;;;;;32.13;16.93;;;4.90;99.90;;;;;;5091046;28;20426;-46
2022/01/27 07:19:39;;;;;;;29.10;16.33;;;4.80;99.90;;;;;;5090776;28;20188;-40
2022/01/27 07:22:05;;;;;;;35.77;16.60;;;5.00;99.90;;;;;;5090740;28;20818;-40
2022/01/27 07:24:30;;;;;;;26.03;15.73;;;4.90;99.90;;;;;;5079965;28;20315;-41
2022/01/27 07:26:56;;;;;;;23.50;14.50;;;5.40;99.90;;;;;;5091318;28;20207;-40
2022/01/27 07:29:22;;;;;;;24.90;15.30;;;5.10;99.90;;;;;;5090934;28;20191;-40
2022/01/27 07:31:48;;;;;;;25.73;16.27;;;5.30;99.90;;;;;;5090487;28;20674;-41
2022/01/27 07:34:13;;;;;;;28.40;16.27;;;5.30;99.90;;;;;;5089628;28;20226;-43
2022/01/27 07:36:40;;;;;;;29.70;15.43;;;5.10;99.90;;;;;;5090916;28;20242;-41
2022/01/27 07:39:12;;;;;;;25.83;16.53;;;5.10;99.90;;;;;;5082341;28;20207;-40
2022/01/27 07:41:38;;;;;;;30.73;17.10;;;5.00;99.90;;;;;;5089465;28;20462;-43
2022/01/27 07:44:04;;;;;;;29.73;16.47;;;5.10;99.90;;;;;;5090705;28;20422;-43
2022/01/27 07:46:29;;;;;;;26.20;16.20;;;5.30;99.90;;;;;;5090164;28;20237;-43
2022/01/27 07:48:55;;;;;;;32.30;16.80;;;5.30;99.90;;;;;;5090269;28;20185;-42
2022/01/27 07:51:22;;;;;;;32.10;15.87;;;5.20;99.90;;;;;;5089617;28;20184;-42
2022/01/27 07:53:48;;;;;;;26.40;15.47;;;5.30;99.90;;;;;;5084810;28;20208;-44
2022/01/27 07:56:13;;;;;;;29.53;16.40;;;5.20;99.90;;;;;;5090686;28;20469;-40
2022/01/27 07:58:42;;;;;;;32.10;17.47;;;5.40;99.90;;;;;;5090392;28;20666;-40
2022/01/27 08:01:10;;;;;;;25.73;16.30;;;5.20;99.90;;;;;;5088603;28;20546;-40
2022/01/27 08:03:37;;;;;;;30.10;16.37;;;5.20;99.90;;;;;;5090170;28;20465;-40
2022/01/27 08:06:07;;;;;;;28.70;16.13;;;5.40;99.90;;;;;;5089984;28;20964;-41
2022/01/27 08:08:34;;;;;;;28.63;17.00;;;5.40;99.90;;;;;;5087010;28;20426;-44
2022/01/27 08:11:00;;;;;;;34.57;18.77;;;5.20;99.90;;;;;;5079897;28;21419;-40
2022/01/27 08:13:26;;;;;;;31.33;18.43;;;5.00;99.90;;;;;;5051669;28;20531;-40
2022/01/27 08:15:53;;;;;;;44.40;19.00;;;5.30;99.90;;;;;;5089183;28;20430;-40
2022/01/27 08:18:19;;;;;;;30.10;17.63;;;5.30;99.90;;;;;;5090141;28;20453;-40
2022/01/27 08:20:47;;;;;;;30.03;18.47;;;5.30;99.90;;;;;;5087763;28;20450;-40
2022/01/27 08:23:16;;;;;;;32.43;17.90;;;5.20;99.90;;;;;;5089680;28;20466;-43
2022/01/27 08:25:47;;;;;;;30.27;17.70;;;5.20;99.90;;;;;;5089587;28;20788;-40
2022/01/27 08:28:27;;;;;;;35.47;18.87;;;5.10;99.90;;;;;;5089853;28;20971;-40
2022/01/27 08:30:55;;;;;;;33.00;17.67;;;5.20;99.90;;;;;;5088972;28;20425;-41
2022/01/27 08:33:21;;;;;;;33.43;17.20;;;5.30;99.90;;;;;;5089761;28;20426;-40
2022/01/27 08:35:47;;;;;;;39.00;19.63;;;5.30;99.90;;;;;;5090067;28;20426;-41
2022/01/27 08:38:14;;;;;;;32.17;17.77;;;5.50;99.90;;;;;;5089493;28;20426;-40
2022/01/27 08:40:40;;;;;;;35.30;17.30;;;5.10;99.90;;;;;;5081415;28;20832;-41
2022/01/27 08:43:10;;;;;;;31.97;17.23;;;5.10;99.90;;;;;;5089370;28;20859;-40
2022/01/27 08:45:38;;;;;;;31.20;18.20;;;5.40;99.90;;;;;;5089218;28;20420;-41
2022/01/27 08:48:05;;;;;;;29.10;17.33;;;5.30;99.90;;;;;;5089308;28;20834;-44
2022/01/27 08:50:31;;;;;;;28.50;17.13;;;5.40;99.90;;;;;;5089025;28;20468;-41
2022/01/27 08:52:57;;;;;;;31.80;18.07;;;5.30;99.90;;;;;;5089329;28;20917;-40
2022/01/27 08:55:23;;;;;;;32.03;17.07;;;5.30;99.90;;;;;;5085210;28;20426;-40
2022/01/27 08:57:49;;;;;;;31.20;17.43;;;5.50;99.90;;;;;;5088489;28;20560;-41
2022/01/27 09:00:16;;;;;;;30.87;16.93;;;5.30;99.90;;;;;;5086711;28;20468;-41
2022/01/27 09:02:42;;;;;;;29.73;17.33;;;5.30;99.90;;;;;;5089191;28;20462;-40
2022/01/27 09:05:08;;;;;;;29.60;18.03;;;5.30;99.90;;;;;;5089532;28;20418;-43
2022/01/27 09:07:34;;;;;;;32.97;18.60;;;5.60;99.90;;;;;;5084857;28;20586;-42
2022/01/27 09:10:00;;;;;;;29.80;16.80;;;5.30;99.90;;;;;;5071005;28;20471;-44
2022/01/27 09:12:26;;;;;;;28.73;16.60;;;5.60;99.90;;;;;;5086380;28;20425;-43
2022/01/27 09:14:52;;;;;;;32.80;17.70;;;5.20;99.90;;;;;;5086718;28;20948;-41
2022/01/27 09:17:18;;;;;;;25.80;16.30;;;5.40;99.90;;;;;;5089312;28;20298;-40
2022/01/27 09:19:46;;;;;;;31.00;15.63;;;5.20;99.90;;;;;;5088149;28;20188;-40
2022/01/27 09:22:14;;;;;;;24.40;17.17;;;5.50;99.90;;;;;;5086976;28;20628;-43
2022/01/27 09:24:56;;;;;;;28.70;16.40;;;5.30;99.90;;;;;;5086491;28;20439;-42
2022/01/27 09:27:23;;;;;;;27.00;16.63;;;5.20;99.90;;;;;;5087125;28;20956;-40
2022/01/27 09:29:50;;;;;;;22.27;14.77;;;5.30;99.90;;;;;;5087324;28;20449;-41
2022/01/27 09:32:16;;;;;;;22.07;15.23;;;5.40;99.90;;;;;;5087311;28;20422;-41
2022/01/27 09:34:43;;;;;;;22.23;14.93;;;5.60;99.90;;;;;;5087951;28;20419;-41
2022/01/27 09:37:09;;;;;;;25.87;16.80;;;5.40;99.90;;;;;;5086837;28;20446;-41
2022/01/27 09:39:35;;;;;;;25.37;16.40;;;5.40;99.90;;;;;;5083882;28;20434;-39
2022/01/27 09:42:03;;;;;;;28.80;16.57;;;5.40;99.90;;;;;;5085456;28;20461;-40
2022/01/27 09:44:31;;;;;;;29.03;16.97;;;5.60;99.90;;;;;;5087938;28;20172;-40
2022/01/27 09:47:03;;;;;;;26.13;16.97;;;5.20;99.90;;;;;;5088135;28;20510;-42
2022/01/27 09:49:53;;;;;;;33.00;18.60;;;5.50;99.90;;;;;;5088677;28;20422;-42
2022/01/27 09:52:16;;;;;;;27.13;17.40;;;5.50;99.90;;;;;;5086261;28;20791;-40
2022/01/27 09:54:44;;;;;;;34.77;19.30;;;5.60;99.90;;;;;;5084779;28;21118;-41
2022/01/27 09:57:11;;;;;;;29.50;17.47;;;5.50;99.90;;;;;;5076594;28;20504;-41
2022/01/27 09:59:37;;;;;;;26.07;15.73;;;5.70;99.90;;;;;;5086895;28;20465;-41
2022/01/27 10:02:08;;;;;;;23.33;14.90;;;5.30;99.90;;;;;;5087098;28;20487;-40
2022/01/27 10:04:46;;;;;;;26.00;14.63;;;5.80;99.90;;;;;;5087704;28;20192;-40
2022/01/27 10:07:15;;;;;;;24.47;15.10;;;5.70;99.90;;;;;;5086893;28;20686;-40
2022/01/27 10:10:16;;;;;;;25.93;15.77;;;5.80;99.90;;;;;;5083197;28;20445;-40
2022/01/27 10:12:50;;;;;;;23.83;14.80;;;5.80;99.90;;;;;;5086322;28;20438;-41
2022/01/27 10:15:19;;;;;;;18.93;12.63;;;5.60;99.90;;;;;;5088989;28;20426;-40
2022/01/27 10:18:08;;;;;;;20.43;13.07;;;5.90;99.90;;;;;;5087863;28;20422;-40
2022/01/27 10:20:36;;;;;;;25.00;13.53;;;5.80;99.90;;;;;;5087475;28;20434;-40
2022/01/27 10:23:10;;;;;;;20.40;12.53;;;5.90;99.90;;;;;;5087714;28;20498;-41
2022/01/27 10:25:46;;;;;;;20.70;13.27;;;5.90;99.90;;;;;;5080942;28;20458;-41
2022/01/27 10:31:25;;;;;;;20.53;13.43;;;5.70;99.90;;;;;;5081479;28;20437;-42
2022/01/27 10:34:01;;;;;;;20.20;13.80;;;5.90;99.90;;;;;;5086333;28;20421;-41
2022/01/27 10:36:40;;;;;;;15.87;12.00;;;5.70;99.90;;;;;;5085812;28;21001;-41
2022/01/27 10:39:12;;;;;;;18.77;12.73;;;5.90;99.90;;;;;;5087832;28;20451;-42
2022/01/27 10:41:54;;;;;;;20.63;13.03;;;6.00;99.90;;;;;;5071234;28;20462;-42
2022/01/27 10:44:20;;;;;;;22.87;12.53;;;5.80;99.90;;;;;;5087271;28;20418;-42
2022/01/27 10:47:12;;;;;;;20.00;11.67;;;5.80;99.90;;;;;;5087768;28;20972;-40
2022/01/27 10:49:44;;;;;;;20.57;13.70;;;5.90;99.90;;;;;;5086972;28;20180;-42
2022/01/27 10:52:12;;;;;;;18.93;12.80;;;5.90;99.90;;;;;;5087644;28;20418;-41
2022/01/27 10:54:40;;;;;;;21.37;13.77;;;6.00;99.90;;;;;;5085075;28;20795;-40
2022/01/27 10:57:12;;;;;;;19.07;13.57;;;6.10;99.90;;;;;;5081024;28;20469;-41
2022/01/27 10:59:40;;;;;;;20.47;13.63;;;5.90;99.90;;;;;;5086383;28;20446;-41
2022/01/27 11:02:09;;;;;;;20.27;13.80;;;6.10;99.90;;;;;;5087372;28;20470;-41
2022/01/27 11:04:42;;;;;;;20.73;14.33;;;6.00;99.90;;;;;;5087230;28;21012;-40
2022/01/27 11:07:13;;;;;;;20.37;12.77;;;5.90;99.90;;;;;;5087558;28;20484;-41
2022/01/27 11:09:43;;;;;;;18.77;13.73;;;6.10;99.90;;;;;;5085304;28;20579;-40
2022/01/27 11:12:13;;;;;;;22.33;14.57;;;6.10;99.90;;;;;;5081100;28;20422;-41
2022/01/27 11:14:40;;;;;;;18.07;12.97;;;6.00;99.90;;;;;;5087199;28;20427;-41
2022/01/27 11:17:09;;;;;;;19.67;14.23;;;6.10;99.90;;;;;;5087022;28;20972;-42
2022/01/27 11:27:47;;;;;;;21.73;13.10;;;6.10;99.90;;;;;;5081986;28;20418;-41
2022/01/27 11:30:32;;;;;;;22.67;14.60;;;6.30;99.90;;;;;;5086307;28;20456;-40
2022/01/27 11:33:03;;;;;;;19.87;13.73;;;6.10;99.90;;;;;;5085887;28;20479;-40
2022/01/27 11:35:29;;;;;;;20.30;13.70;;;6.10;99.90;;;;;;5087257;28;20856;-41
2022/01/27 11:37:57;;;;;;;22.73;13.37;;;6.00;99.90;;;;;;5087031;28;20826;-41
2022/01/27 11:40:43;;;;;;;20.17;13.27;;;6.20;99.90;;;;;;5081281;28;20435;-42
2022/01/27 11:43:11;;;;;;;18.50;13.97;;;6.40;99.90;;;;;;5084607;28;20458;-41
2022/01/27 11:45:40;;;;;;;20.40;15.63;;;6.50;99.90;;;;;;5087266;28;20414;-43
2022/01/27 11:48:13;;;;;;;17.87;13.70;;;6.50;99.90;;;;;;5087166;28;20428;-41
2022/01/27 11:50:55;;;;;;;18.70;13.67;;;6.20;99.90;;;;;;5086385;28;20880;-41
2022/01/27 11:53:30;;;;;;;19.87;14.40;;;6.40;99.90;;;;;;5086641;28;20519;-44
2022/01/27 11:55:58;;;;;;;20.90;15.23;;;6.30;99.90;;;;;;5083179;28;20539;-40
2022/01/27 11:58:25;;;;;;;21.37;13.60;;;6.30;99.90;;;;;;5087830;28;20513;-40
2022/01/27 12:01:03;;;;;;;18.20;13.97;;;6.40;99.90;;;;;;5089966;28;20838;-40
2022/01/27 12:03:30;;;;;;;19.53;14.90;;;6.30;99.90;;;;;;5090047;28;20501;-40
2022/01/27 12:06:14;;;;;;;18.87;14.00;;;6.60;99.90;;;;;;5088990;28;20426;-40
2022/01/27 12:08:40;;;;;;;18.13;13.40;;;6.60;99.90;;;;;;5076594;28;21035;-40
2022/01/27 12:11:09;;;;;;;19.83;14.17;;;6.60;99.90;;;;;;5082260;28;20535;-42
2022/01/27 12:13:43;;;;;;;19.00;13.03;;;6.40;99.90;;;;;;5089309;28;20184;-41
2022/01/27 12:16:54;;;;;;;17.47;13.27;;;6.60;99.90;;;;;;5088451;28;20429;-40
2022/01/27 12:19:13;;;;;;;16.93;13.43;;;6.60;99.90;;;;;;5089784;28;20462;-41
2022/01/27 12:21:51;;;;;;;20.30;14.63;;;6.50;99.90;;;;;;5089242;28;20494;-41
2022/01/27 12:24:27;;;;;;;18.03;13.27;;;6.70;99.90;;;;;;5089433;28;20426;-40
2022/01/27 12:27:00;;;;;;;18.30;13.50;;;6.60;99.90;;;;;;5079909;28;20429;-42
2022/01/27 12:29:30;;;;;;;18.27;12.77;;;6.40;99.90;;;;;;5088819;28;20426;-40
2022/01/27 12:32:05;;;;;;;16.43;12.63;;;6.40;99.90;;;;;;5089573;28;20930;-41
2022/01/27 12:34:32;;;;;;;20.00;14.50;;;6.30;99.90;;;;;;5089731;28;20503;-41
2022/01/27 12:37:08;;;;;;;17.53;13.03;;;6.30;99.90;;;;;;5088342;28;20952;-41
2022/01/27 12:39:49;;;;;;;19.07;13.93;;;6.50;99.90;;;;;;5089260;28;20422;-41
2022/01/27 12:42:16;;;;;;;16.70;13.47;;;6.30;99.90;;;;;;5081573;28;20457;-41
2022/01/27 12:45:04;;;;;;;16.00;12.60;;;6.30;99.90;;;;;;5089412;28;20510;-40
2022/01/27 12:47:31;;;;;;;19.17;14.13;;;6.60;99.90;;;;;;5089824;28;20576;-41
2022/01/27 12:50:08;;;;;;;17.93;13.70;;;6.40;99.90;;;;;;5087805;28;20423;-43
2022/01/27 12:52:40;;;;;;;18.97;13.53;;;6.40;99.90;;;;;;5089925;28;20420;-43
2022/01/27 12:55:07;;;;;;;20.00;13.53;;;6.70;99.90;;;;;;5088313;28;20515;-45
2022/01/27 12:57:33;;;;;;;19.27;14.23;;;6.70;99.90;;;;;;5072619;28;20450;-42
2022/01/27 13:00:00;;;;;;;17.93;14.10;;;6.50;99.90;;;;;;5088394;28;20434;-42
2022/01/27 13:02:27;;;;;;;19.13;14.20;;;6.60;99.90;;;;;;5087706;28;20570;-42
2022/01/27 13:04:55;;;;;;;19.57;14.67;;;6.70;99.90;;;;;;5089201;28;20430;-41
2022/01/27 13:07:21;;;;;;;17.53;13.50;;;6.70;99.90;;;;;;5089318;28;20451;-41
2022/01/27 13:10:06;;;;;;;20.23;15.63;;;6.80;99.90;;;;;;5088767;28;20426;-43
2022/01/27 13:12:54;;;;;;;18.60;14.33;;;6.80;99.90;;;;;;5076521;28;20503;-43
2022/01/27 13:15:23;;;;;;;20.27;14.87;;;6.60;99.90;;;;;;5085632;28;20428;-42
2022/01/27 13:18:04;;;;;;;20.50;15.10;;;6.70;99.90;;;;;;5089426;28;20434;-41
2022/01/27 13:20:37;;;;;;;22.40;15.80;;;6.70;99.90;;;;;;5088602;28;20511;-44
2022/01/27 13:23:16;;;;;;;19.70;15.50;;;6.80;99.90;;;;;;5089395;28;20470;-43
2022/01/27 13:25:53;;;;;;;21.10;16.03;;;6.70;99.90;;;;;;5086832;28;20426;-42
2022/01/27 13:28:23;;;;;;;18.93;14.90;;;6.60;99.90;;;;;;5081878;28;20904;-41
2022/01/27 13:30:54;;;;;;;19.97;16.40;;;7.10;99.90;;;;;;5087106;28;20403;-43
2022/01/27 13:33:25;;;;;;;19.10;14.37;;;6.80;99.90;;;;;;5088687;28;20423;-41
2022/01/27 13:35:52;;;;;;;18.67;14.80;;;6.80;99.90;;;;;;5088867;28;20437;-41
2022/01/27 13:38:22;;;;;;;18.77;14.60;;;7.10;99.90;;;;;;5087599;28;20422;-44
2022/01/27 13:43:43;;;;;;;18.20;13.73;;;6.80;99.90;;;;;;5083969;28;20805;-42